Time;durP1;ratioP1;P1;durP2;ratioP2;P2;SDS_P1;SDS_P2;PMS_P1;PMS_P2;Temp;Humidity;BMP_temperature;BMP_pressure;BME280_temperature;BME280_humidity;BME280_pressure;Samples;Min_cycle;Max_cycle;Signal;HPM_P1;HPM_P2
2022/03/03 00:01:44;;;;;;;68.43;46.67;;;2.40;99.90;;;;;;5048652;28;20056;-60
2022/03/03 00:04:11;;;;;;;69.90;45.42;;;2.30;99.90;;;;;;5047575;28;20045;-60
2022/03/03 00:06:37;;;;;;;72.13;46.53;;;2.30;99.90;;;;;;5043185;28;20045;-60
2022/03/03 00:09:04;;;;;;;68.95;46.25;;;2.30;99.90;;;;;;5025152;28;20045;-60
2022/03/03 00:11:31;;;;;;;68.30;45.22;;;2.30;99.90;;;;;;5042948;28;20129;-59
2022/03/03 00:13:58;;;;;;;72.03;47.40;;;2.30;99.90;;;;;;5045071;28;20048;-60
2022/03/03 00:16:25;;;;;;;71.50;46.65;;;2.20;99.90;;;;;;5044699;28;20049;-59
2022/03/03 00:18:51;;;;;;;70.20;46.05;;;2.20;99.90;;;;;;5043621;28;20045;-60
2022/03/03 00:21:18;;;;;;;66.78;45.08;;;2.20;99.90;;;;;;5044348;28;20124;-60
2022/03/03 00:23:44;;;;;;;66.88;46.03;;;2.20;99.90;;;;;;5045342;28;20060;-60
2022/03/03 00:26:10;;;;;;;67.97;46.45;;;2.20;99.90;;;;;;5045914;28;20158;-63
2022/03/03 00:28:36;;;;;;;66.70;44.95;;;2.20;99.90;;;;;;5045355;28;20488;-62
2022/03/03 00:31:03;;;;;;;65.43;44.55;;;2.10;99.90;;;;;;5044868;28;20557;-60
2022/03/03 00:33:29;;;;;;;67.88;45.05;;;2.10;99.90;;;;;;5046017;28;20118;-60
2022/03/03 00:35:55;;;;;;;65.65;42.72;;;2.10;99.90;;;;;;5043074;28;20130;-60
2022/03/03 00:38:22;;;;;;;65.53;42.17;;;2.10;99.90;;;;;;5010650;28;20508;-61
2022/03/03 00:40:48;;;;;;;64.55;42.72;;;2.10;99.90;;;;;;5043483;28;20059;-60
2022/03/03 00:43:14;;;;;;;64.25;42.22;;;2.10;99.90;;;;;;5027573;28;20041;-60
2022/03/03 00:45:40;;;;;;;59.63;42.78;;;2.00;99.90;;;;;;5027596;28;20130;-60
2022/03/03 00:48:06;;;;;;;64.72;42.45;;;2.00;99.90;;;;;;5027623;28;20052;-60
2022/03/03 00:50:33;;;;;;;61.78;41.13;;;2.00;99.90;;;;;;5044783;28;20037;-60
2022/03/03 00:52:59;;;;;;;60.53;42.40;;;2.00;99.90;;;;;;5044105;28;20060;-59
2022/03/03 00:55:25;;;;;;;63.78;41.28;;;2.00;99.90;;;;;;5044690;28;20052;-59
2022/03/03 00:57:51;;;;;;;60.13;41.55;;;1.90;99.90;;;;;;5041535;28;20068;-59
2022/03/03 01:00:18;;;;;;;65.28;43.28;;;1.90;99.90;;;;;;5026129;28;20044;-61
2022/03/03 01:02:49;;;;;;;63.50;43.40;;;1.80;99.90;;;;;;5042786;28;20593;-61
2022/03/03 01:05:15;;;;;;;61.25;42.33;;;1.80;99.90;;;;;;5045499;28;20037;-61
2022/03/03 01:07:42;;;;;;;57.13;39.47;;;1.80;99.90;;;;;;5042557;28;20037;-61
2022/03/03 01:10:09;;;;;;;60.92;41.92;;;1.80;99.90;;;;;;5045077;28;20057;-63
2022/03/03 01:12:35;;;;;;;66.00;43.72;;;1.70;99.90;;;;;;5040942;28;20053;-60
2022/03/03 01:15:04;;;;;;;60.83;41.47;;;1.70;99.90;;;;;;5043695;28;20118;-61
2022/03/03 01:17:30;;;;;;;63.33;41.58;;;1.70;99.90;;;;;;5040358;28;20575;-60
2022/03/03 01:19:56;;;;;;;61.10;43.05;;;1.60;99.90;;;;;;5026545;28;20107;-61
2022/03/03 01:22:23;;;;;;;58.60;41.40;;;1.60;99.90;;;;;;5009423;28;20752;-61
2022/03/03 01:24:49;;;;;;;61.42;41.38;;;1.50;99.90;;;;;;5043092;28;20072;-61
2022/03/03 01:27:15;;;;;;;64.13;43.53;;;1.50;99.90;;;;;;5043938;28;20045;-61
2022/03/03 01:29:42;;;;;;;60.03;40.88;;;1.40;99.90;;;;;;5044215;28;20095;-61
2022/03/03 01:32:08;;;;;;;62.25;40.80;;;1.40;99.90;;;;;;5043521;28;20080;-61
2022/03/03 01:34:35;;;;;;;64.60;44.17;;;1.30;99.90;;;;;;5025100;28;20045;-60
2022/03/03 01:37:02;;;;;;;63.42;43.92;;;1.30;99.90;;;;;;5026621;28;20052;-60
2022/03/03 01:39:28;;;;;;;67.80;43.83;;;1.20;99.90;;;;;;5026442;28;20358;-61
2022/03/03 01:41:55;;;;;;;68.75;43.72;;;1.20;99.90;;;;;;5044280;28;20518;-61
2022/03/03 01:44:21;;;;;;;70.07;45.22;;;1.20;99.90;;;;;;5043889;28;20060;-61
2022/03/03 01:46:53;;;;;;;67.43;45.03;;;1.20;99.90;;;;;;5041333;28;20900;-61
2022/03/03 01:49:19;;;;;;;65.07;44.37;;;1.10;99.90;;;;;;5044921;28;20045;-61
2022/03/03 01:51:46;;;;;;;67.28;43.70;;;1.10;99.90;;;;;;5043567;28;20808;-61
2022/03/03 01:54:13;;;;;;;65.47;43.03;;;1.10;99.90;;;;;;5006337;28;20472;-61
2022/03/03 01:56:42;;;;;;;70.47;44.92;;;1.00;99.90;;;;;;5044152;28;20110;-61
2022/03/03 01:59:09;;;;;;;67.35;44.47;;;1.00;99.90;;;;;;5058348;28;20057;-62
2022/03/03 02:01:39;;;;;;;66.90;45.05;;;1.00;99.90;;;;;;5043398;28;20052;-61
2022/03/03 02:04:07;;;;;;;71.03;43.13;;;0.90;99.90;;;;;;5041812;28;20048;-61
2022/03/03 02:06:33;;;;;;;64.13;44.30;;;0.90;99.90;;;;;;5040275;28;20045;-61
2022/03/03 02:09:00;;;;;;;64.68;44.85;;;0.90;99.90;;;;;;5042221;28;20432;-61
2022/03/03 02:11:26;;;;;;;57.10;40.00;;;0.80;99.90;;;;;;5041746;28;20124;-61
2022/03/03 02:13:52;;;;;;;67.53;44.25;;;0.80;99.90;;;;;;5008784;28;20095;-61
2022/03/03 02:16:19;;;;;;;67.47;43.58;;;0.80;99.90;;;;;;5042477;28;20518;-61
2022/03/03 02:18:45;;;;;;;64.53;44.55;;;0.70;99.90;;;;;;5044842;28;20076;-62
2022/03/03 02:21:13;;;;;;;68.15;44.55;;;0.70;99.90;;;;;;5027144;28;20183;-61
2022/03/03 02:23:40;;;;;;;66.93;42.78;;;0.70;99.90;;;;;;5026449;28;20044;-62
2022/03/03 02:26:10;;;;;;;70.32;46.20;;;0.70;99.90;;;;;;5045257;28;20047;-61
2022/03/03 02:28:37;;;;;;;64.13;42.15;;;0.70;99.90;;;;;;5044393;28;20562;-62
2022/03/03 02:31:03;;;;;;;66.78;44.42;;;0.70;99.90;;;;;;5043538;28;20106;-61
2022/03/03 02:33:29;;;;;;;64.20;42.40;;;0.70;99.90;;;;;;5044184;28;20053;-62
2022/03/03 02:35:55;;;;;;;67.32;44.45;;;0.70;99.90;;;;;;5042360;28;20049;-59
2022/03/03 02:38:21;;;;;;;64.97;43.60;;;0.70;99.90;;;;;;5042653;28;20045;-59
2022/03/03 02:40:47;;;;;;;67.57;43.90;;;0.60;99.90;;;;;;5042560;28;20083;-59
2022/03/03 02:43:13;;;;;;;64.47;44.05;;;0.70;99.90;;;;;;5042837;28;20056;-59
2022/03/03 02:45:39;;;;;;;65.85;43.83;;;0.60;99.90;;;;;;5044086;28;20072;-59
2022/03/03 02:48:05;;;;;;;67.03;45.08;;;0.60;99.90;;;;;;5043141;28;20053;-61
2022/03/03 02:50:31;;;;;;;63.60;41.88;;;0.60;99.90;;;;;;5041929;28;20087;-62
2022/03/03 02:53:01;;;;;;;62.80;43.65;;;0.60;99.90;;;;;;5041511;28;20151;-61
2022/03/03 02:55:28;;;;;;;67.97;42.72;;;0.50;99.90;;;;;;5041746;28;20121;-62
2022/03/03 02:57:55;;;;;;;65.90;44.13;;;0.40;99.90;;;;;;5041875;28;20053;-62
2022/03/03 03:00:38;;;;;;;66.22;43.67;;;0.40;99.90;;;;;;5042163;28;20428;-61
2022/03/03 03:03:04;;;;;;;72.32;44.70;;;0.30;99.90;;;;;;5057571;28;20084;-61
2022/03/03 03:05:31;;;;;;;65.72;42.13;;;0.30;99.90;;;;;;5041464;28;20103;-62
2022/03/03 03:07:58;;;;;;;63.60;45.08;;;0.30;99.90;;;;;;5041487;28;20415;-62
2022/03/03 03:10:24;;;;;;;68.00;44.70;;;0.30;99.90;;;;;;5025105;28;20551;-62
2022/03/03 03:12:50;;;;;;;65.55;45.60;;;0.30;99.90;;;;;;5043822;28;20056;-62
2022/03/03 03:15:17;;;;;;;68.47;46.40;;;0.30;99.90;;;;;;5042903;28;20124;-60
2022/03/03 03:17:43;;;;;;;66.20;45.42;;;0.30;99.90;;;;;;5040354;28;20077;-62
2022/03/03 03:20:09;;;;;;;66.55;44.88;;;0.30;99.90;;;;;;5044317;28;20045;-62
2022/03/03 03:22:36;;;;;;;67.97;43.42;;;0.30;99.90;;;;;;5040974;28;20137;-62
2022/03/03 03:25:10;;;;;;;67.40;44.53;;;0.30;99.90;;;;;;5026290;28;20099;-60
2022/03/03 03:27:38;;;;;;;67.70;43.28;;;0.30;99.90;;;;;;5043210;28;20142;-60
2022/03/03 03:30:07;;;;;;;67.63;44.13;;;0.30;99.90;;;;;;5042096;28;20049;-60
2022/03/03 03:32:34;;;;;;;61.45;42.22;;;0.30;99.90;;;;;;5043588;28;20048;-60
2022/03/03 03:35:01;;;;;;;71.47;45.72;;;0.20;99.90;;;;;;5045867;28;20081;-60
2022/03/03 03:37:28;;;;;;;66.68;43.72;;;0.20;99.90;;;;;;5041344;28;20048;-60
2022/03/03 03:39:55;;;;;;;67.72;44.80;;;0.20;99.90;;;;;;5044908;28;20807;-60
2022/03/03 03:42:21;;;;;;;66.25;43.45;;;0.20;99.90;;;;;;5045125;28;20044;-60
2022/03/03 03:44:47;;;;;;;65.13;44.92;;;0.20;99.90;;;;;;5046687;28;20533;-60
2022/03/03 03:47:13;;;;;;;64.60;42.85;;;0.20;99.90;;;;;;5062369;28;20132;-62
2022/03/03 03:49:40;;;;;;;65.97;43.55;;;0.20;99.90;;;;;;5048094;28;20057;-62
2022/03/03 03:52:06;;;;;;;64.93;43.22;;;0.20;99.90;;;;;;5047767;28;20052;-62
2022/03/03 03:54:32;;;;;;;62.88;44.72;;;0.30;99.90;;;;;;5047414;28;20502;-63
2022/03/03 03:56:58;;;;;;;63.85;41.28;;;0.30;99.90;;;;;;5029767;28;20118;-63
2022/03/03 03:59:24;;;;;;;67.78;44.83;;;0.20;99.90;;;;;;5046253;28;20057;-61
2022/03/03 04:01:51;;;;;;;64.15;42.40;;;0.30;99.90;;;;;;5043514;28;20049;-61
2022/03/03 04:04:17;;;;;;;62.83;42.45;;;0.30;99.90;;;;;;5035101;28;20045;-60
2022/03/03 04:06:43;;;;;;;64.20;41.80;;;0.30;99.90;;;;;;5044770;28;20491;-60
2022/03/03 04:09:09;;;;;;;62.95;43.22;;;0.30;99.90;;;;;;5044792;28;20049;-60
2022/03/03 04:11:35;;;;;;;62.95;42.55;;;0.40;99.90;;;;;;5036327;28;20117;-60
2022/03/03 04:14:01;;;;;;;59.92;40.15;;;0.40;99.90;;;;;;5064086;28;20053;-60
2022/03/03 04:16:27;;;;;;;63.20;44.03;;;0.40;99.90;;;;;;5047127;28;20044;-62
2022/03/03 04:18:54;;;;;;;66.38;45.15;;;0.40;99.90;;;;;;5013882;28;20536;-63
2022/03/03 04:21:20;;;;;;;64.05;44.08;;;0.40;99.90;;;;;;5045504;28;20984;-63
2022/03/03 04:23:46;;;;;;;61.40;41.83;;;0.50;99.90;;;;;;5047952;28;20142;-61
2022/03/03 04:26:12;;;;;;;61.97;41.80;;;0.40;99.90;;;;;;5029063;28;20049;-61
2022/03/03 04:28:38;;;;;;;62.65;41.53;;;0.50;99.90;;;;;;5048108;28;20796;-62
2022/03/03 04:31:05;;;;;;;62.10;41.90;;;0.50;99.90;;;;;;5045083;28;20052;-62
2022/03/03 04:33:31;;;;;;;60.40;40.35;;;0.50;99.90;;;;;;5046313;28;20052;-62
2022/03/03 04:35:57;;;;;;;61.58;41.03;;;0.60;99.90;;;;;;5055428;28;20110;-62
2022/03/03 04:38:25;;;;;;;58.35;40.60;;;0.50;99.90;;;;;;5045671;28;20110;-62
2022/03/03 04:40:51;;;;;;;61.58;42.00;;;0.50;99.90;;;;;;5028113;28;20418;-62
2022/03/03 04:43:18;;;;;;;56.95;40.08;;;0.60;99.90;;;;;;5047123;28;20076;-62
2022/03/03 04:45:44;;;;;;;56.28;39.00;;;0.60;99.90;;;;;;5042859;28;20049;-62
2022/03/03 04:48:10;;;;;;;53.28;36.92;;;0.50;99.90;;;;;;5044667;28;20045;-61
2022/03/03 04:50:36;;;;;;;55.45;37.33;;;0.50;99.90;;;;;;5027825;28;20126;-62
2022/03/03 04:53:03;;;;;;;53.40;37.85;;;0.50;99.90;;;;;;5044544;28;20052;-62
2022/03/03 04:55:29;;;;;;;52.22;37.67;;;0.50;99.90;;;;;;5044225;28;20175;-62
2022/03/03 04:57:55;;;;;;;52.85;37.90;;;0.50;99.90;;;;;;5046336;28;20060;-62
2022/03/03 05:00:21;;;;;;;49.13;34.75;;;0.50;99.90;;;;;;5044876;28;20052;-62
2022/03/03 05:02:47;;;;;;;49.15;32.00;;;0.50;99.90;;;;;;5045451;28;20045;-61
2022/03/03 05:05:13;;;;;;;49.25;32.85;;;0.50;99.90;;;;;;5045965;28;20074;-62
2022/03/03 05:07:40;;;;;;;46.65;33.35;;;0.50;99.90;;;;;;5043975;28;20793;-59
2022/03/03 05:10:07;;;;;;;45.72;32.38;;;0.50;99.90;;;;;;5026494;28;20662;-59
2022/03/03 05:12:34;;;;;;;45.65;33.55;;;0.50;99.90;;;;;;5042493;28;20052;-60
2022/03/03 05:15:00;;;;;;;45.80;32.08;;;0.50;99.90;;;;;;5024857;28;20128;-59
2022/03/03 05:17:26;;;;;;;47.00;34.20;;;0.50;99.90;;;;;;5042197;28;20049;-59
2022/03/03 05:19:52;;;;;;;41.88;31.95;;;0.50;99.90;;;;;;5048998;28;20053;-59
2022/03/03 05:22:18;;;;;;;41.92;30.95;;;0.50;99.90;;;;;;5043368;28;20049;-59
2022/03/03 05:24:49;;;;;;;44.38;32.53;;;0.50;99.90;;;;;;5042442;28;20052;-59
2022/03/03 05:27:16;;;;;;;48.57;33.27;;;0.50;99.90;;;;;;5028235;28;20057;-59
2022/03/03 05:29:42;;;;;;;41.72;30.65;;;0.50;99.90;;;;;;5024326;28;20042;-60
2022/03/03 05:32:08;;;;;;;43.25;30.55;;;0.40;99.90;;;;;;5041338;28;20537;-59
2022/03/03 05:34:34;;;;;;;49.40;32.42;;;0.50;99.90;;;;;;5023783;28;20053;-59
2022/03/03 05:37:01;;;;;;;42.20;30.52;;;0.50;99.90;;;;;;5043381;28;20053;-59
2022/03/03 05:39:28;;;;;;;40.55;31.35;;;0.40;99.90;;;;;;5042926;28;20055;-59
2022/03/03 05:41:55;;;;;;;41.05;32.28;;;0.40;99.90;;;;;;5060153;28;20051;-59
2022/03/03 05:44:22;;;;;;;42.60;31.38;;;0.40;99.90;;;;;;5042447;28;20128;-59
2022/03/03 05:46:48;;;;;;;43.38;31.63;;;0.30;99.90;;;;;;5025889;28;20044;-59
2022/03/03 05:49:16;;;;;;;48.60;31.15;;;0.30;99.90;;;;;;5041441;28;20492;-59
2022/03/03 05:51:43;;;;;;;40.17;30.27;;;0.20;99.90;;;;;;5041480;28;20088;-59
2022/03/03 05:54:09;;;;;;;42.88;30.23;;;0.20;99.90;;;;;;5041356;28;20576;-59
2022/03/03 05:56:39;;;;;;;43.72;30.58;;;0.20;99.90;;;;;;5041543;28;20057;-59
2022/03/03 05:59:10;;;;;;;44.03;32.55;;;0.10;99.90;;;;;;5025350;28;20091;-60
2022/03/03 06:01:38;;;;;;;42.28;32.22;;;0.10;99.90;;;;;;5045904;28;20060;-59
2022/03/03 06:04:07;;;;;;;43.38;32.30;;;0.10;99.90;;;;;;5042919;28;20592;-59
2022/03/03 06:06:37;;;;;;;43.53;31.65;;;0.10;99.90;;;;;;5043211;28;20100;-60
2022/03/03 06:09:14;;;;;;;42.88;31.13;;;0.00;99.90;;;;;;5035066;28;20050;-59
2022/03/03 06:11:52;;;;;;;42.50;30.33;;;0.00;99.90;;;;;;5019644;28;20055;-60
2022/03/03 06:14:35;;;;;;;42.97;31.73;;;-0.10;99.90;;;;;;5043413;28;20155;-60
2022/03/03 06:17:02;;;;;;;43.97;32.70;;;-0.10;99.90;;;;;;5044455;28;20469;-59
2022/03/03 06:19:29;;;;;;;46.03;32.30;;;-0.10;99.90;;;;;;5059170;28;20466;-59
2022/03/03 06:21:55;;;;;;;41.70;32.63;;;-0.10;99.90;;;;;;5054648;28;20508;-62
2022/03/03 06:24:21;;;;;;;42.40;31.75;;;-0.10;99.90;;;;;;5034484;28;20455;-62
2022/03/03 06:26:48;;;;;;;41.88;30.33;;;-0.10;99.90;;;;;;5031657;28;20053;-62
2022/03/03 06:29:14;;;;;;;44.17;32.17;;;-0.10;99.90;;;;;;5052690;28;20489;-62
2022/03/03 06:31:40;;;;;;;39.83;29.42;;;-0.10;99.90;;;;;;5030332;28;20045;-61
2022/03/03 06:34:07;;;;;;;41.50;30.27;;;-0.10;99.90;;;;;;5049124;28;20044;-62
2022/03/03 06:36:33;;;;;;;38.00;28.25;;;0.00;99.90;;;;;;5040717;28;20099;-62
2022/03/03 06:38:59;;;;;;;40.45;30.52;;;0.00;99.90;;;;;;5043315;28;20091;-62
2022/03/03 06:41:26;;;;;;;38.38;31.17;;;0.00;99.90;;;;;;5043976;28;20194;-62
2022/03/03 06:43:52;;;;;;;39.67;28.60;;;0.00;99.90;;;;;;5040864;28;20041;-63
2022/03/03 06:46:18;;;;;;;36.25;28.70;;;0.10;99.90;;;;;;5037601;28;20080;-63
2022/03/03 06:48:45;;;;;;;40.20;30.98;;;0.10;99.90;;;;;;5043447;28;20057;-64
2022/03/03 06:51:17;;;;;;;42.00;30.27;;;0.20;99.90;;;;;;5043670;28;20048;-63
2022/03/03 06:53:44;;;;;;;;;;;0.10;99.90;;;;;;5021375;28;20056;-63
2022/03/03 06:56:15;;;;;;;42.70;29.63;;;0.10;99.90;;;;;;5055699;28;20304;-65
2022/03/03 06:58:41;;;;;;;36.83;29.20;;;0.20;99.90;;;;;;5043868;28;20056;-63
2022/03/03 07:01:12;;;;;;;40.10;30.00;;;0.20;99.90;;;;;;5041031;28;20119;-63
2022/03/03 07:03:42;;;;;;;43.40;30.30;;;0.20;99.90;;;;;;5028869;28;20124;-63
2022/03/03 07:06:09;;;;;;;41.03;30.67;;;0.30;99.90;;;;;;5061379;28;20496;-63
2022/03/03 07:08:35;;;;;;;38.45;29.20;;;0.40;99.90;;;;;;5056420;28;20044;-63
2022/03/03 07:11:02;;;;;;;39.75;30.65;;;0.40;99.90;;;;;;5046038;28;20049;-63
2022/03/03 07:13:28;;;;;;;41.28;29.85;;;0.40;99.90;;;;;;5046134;28;20041;-62
2022/03/03 07:16:23;;;;;;;41.17;30.05;;;0.60;99.90;;;;;;5045305;28;20051;-59
2022/03/03 07:18:53;;;;;;;38.95;29.20;;;0.60;99.90;;;;;;5047821;28;20658;-60
2022/03/03 07:21:51;;;;;;;38.83;29.60;;;0.80;99.90;;;;;;5041005;28;20102;-60
2022/03/03 07:24:35;;;;;;;37.45;28.15;;;0.90;99.90;;;;;;5060621;28;20047;-59
2022/03/03 07:27:07;;;;;;;36.00;28.67;;;1.10;99.90;;;;;;5062614;28;20083;-59
2022/03/03 07:29:34;;;;;;;33.60;26.98;;;1.30;99.90;;;;;;5046165;28;20057;-60
2022/03/03 07:32:08;;;;;;;37.58;29.15;;;1.50;99.90;;;;;;5028748;28;20049;-60
2022/03/03 07:34:37;;;;;;;31.27;25.65;;;1.70;99.90;;;;;;5046430;28;20403;-60
2022/03/03 07:37:10;;;;;;;35.63;27.13;;;2.00;99.90;;;;;;5048230;28;20045;-60
2022/03/03 07:39:45;;;;;;;35.85;28.38;;;2.20;99.90;;;;;;5031012;28;20156;-60
2022/03/03 07:42:14;;;;;;;31.90;26.40;;;2.40;99.90;;;;;;5044832;28;20080;-63
2022/03/03 07:44:40;;;;;;;31.40;25.92;;;2.70;99.90;;;;;;5046394;28;20208;-63
2022/03/03 07:47:08;;;;;;;28.83;25.42;;;3.00;99.90;;;;;;5047455;28;20181;-63
2022/03/03 07:49:35;;;;;;;33.47;26.98;;;3.50;99.90;;;;;;5036417;28;20060;-63
2022/03/03 07:52:05;;;;;;;27.35;24.10;;;3.80;99.90;;;;;;5048127;28;20045;-63
2022/03/03 07:54:32;;;;;;;27.60;24.52;;;4.20;99.90;;;;;;5042057;28;20047;-61
2022/03/03 07:57:01;;;;;;;27.92;24.92;;;4.60;99.90;;;;;;5039633;28;20096;-60
2022/03/03 07:59:32;;;;;;;29.17;25.52;;;5.10;99.90;;;;;;5043280;28;20044;-62
2022/03/03 08:02:01;;;;;;;24.48;21.90;;;5.50;99.90;;;;;;5043431;28;20110;-61
2022/03/03 08:04:29;;;;;;;28.85;23.83;;;6.00;99.90;;;;;;5044348;28;20064;-63
2022/03/03 08:07:07;;;;;;;25.85;22.90;;;6.00;99.90;;;;;;5045684;28;20064;-63
2022/03/03 08:09:34;;;;;;;27.35;24.45;;;6.50;99.90;;;;;;5044166;28;20077;-63
2022/03/03 08:12:04;;;;;;;25.88;21.48;;;6.40;99.90;;;;;;5045641;28;20056;-63
2022/03/03 08:14:31;;;;;;;24.65;21.60;;;6.70;99.90;;;;;;5040800;28;20061;-60
2022/03/03 08:16:58;;;;;;;25.88;22.92;;;7.10;99.90;;;;;;5040511;28;20057;-62
2022/03/03 08:19:24;;;;;;;25.45;22.38;;;7.60;99.90;;;;;;5044515;28;20047;-63
2022/03/03 08:21:51;;;;;;;24.50;21.88;;;7.80;99.90;;;;;;5044763;28;20056;-63
2022/03/03 08:24:17;;;;;;;24.83;22.10;;;7.70;99.90;;;;;;5043735;28;20053;-63
2022/03/03 08:26:45;;;;;;;24.38;21.88;;;7.60;99.90;;;;;;5042724;28;20061;-63
2022/03/03 08:29:12;;;;;;;26.45;23.50;;;7.60;99.90;;;;;;5040841;28;20044;-60
2022/03/03 08:31:43;;;;;;;25.70;21.00;;;8.00;99.90;;;;;;5040945;28;20053;-63
2022/03/03 08:34:18;;;;;;;26.17;23.27;;;8.40;99.00;;;;;;5042159;28;20048;-62
2022/03/03 08:36:54;;;;;;;24.70;22.17;;;8.80;69.20;;;;;;5041131;28;20048;-62
2022/03/03 08:39:28;;;;;;;23.77;20.60;;;9.00;63.50;;;;;;5041589;28;20053;-62
2022/03/03 08:41:57;;;;;;;23.42;21.08;;;9.00;66.30;;;;;;5024115;28;20037;-63
2022/03/03 08:44:34;;;;;;;24.58;22.05;;;9.30;65.00;;;;;;5042002;28;20524;-62
2022/03/03 08:47:03;;;;;;;24.48;22.08;;;9.90;62.60;;;;;;5043380;28;20073;-62
2022/03/03 08:49:36;;;;;;;24.50;21.90;;;10.10;62.20;;;;;;5042766;28;20056;-62
2022/03/03 08:52:03;;;;;;;23.83;21.48;;;10.10;57.90;;;;;;5041158;28;20084;-62
2022/03/03 08:54:30;;;;;;;23.55;21.15;;;10.30;59.70;;;;;;5058995;28;20056;-62
2022/03/03 08:56:56;;;;;;;23.50;20.95;;;10.10;57.30;;;;;;5010061;28;20546;-60
2022/03/03 08:59:22;;;;;;;22.48;20.17;;;10.30;57.30;;;;;;5041854;28;20115;-60
2022/03/03 09:01:51;;;;;;;25.27;22.70;;;10.70;57.50;;;;;;5043137;28;20045;-60
2022/03/03 09:04:18;;;;;;;25.48;22.75;;;10.90;57.20;;;;;;5041186;28;20037;-60
2022/03/03 09:06:47;;;;;;;22.45;20.08;;;10.90;55.60;;;;;;5040160;28;20044;-62
2022/03/03 09:09:13;;;;;;;23.73;21.08;;;10.40;53.30;;;;;;5042070;28;20074;-62
2022/03/03 09:11:39;;;;;;;24.05;21.48;;;10.70;54.50;;;;;;5041893;28;20052;-62
2022/03/03 09:14:07;;;;;;;23.25;20.75;;;11.10;55.20;;;;;;5040098;28;20128;-63
2022/03/03 09:16:34;;;;;;;24.42;21.90;;;11.60;54.30;;;;;;5025729;28;20052;-62
2022/03/03 09:19:00;;;;;;;22.75;20.55;;;11.70;53.90;;;;;;5058153;28;20052;-62
2022/03/03 09:21:28;;;;;;;23.73;21.35;;;11.30;52.80;;;;;;5040696;28;20059;-62
2022/03/03 09:23:55;;;;;;;22.63;20.23;;;12.20;53.20;;;;;;5025154;28;20525;-62
2022/03/03 09:26:21;;;;;;;22.95;20.58;;;12.80;53.00;;;;;;5024637;28;20053;-62
2022/03/03 09:28:47;;;;;;;25.58;23.00;;;13.10;52.40;;;;;;5039839;28;20045;-62
2022/03/03 09:31:14;;;;;;;22.38;19.95;;;13.30;51.20;;;;;;5040710;28;20048;-62
2022/03/03 09:33:40;;;;;;;22.63;20.45;;;13.30;51.00;;;;;;5043212;28;20510;-62
2022/03/03 09:36:06;;;;;;;22.92;20.52;;;13.70;50.40;;;;;;5043718;28;20073;-62
2022/03/03 09:38:33;;;;;;;22.80;20.05;;;13.00;49.50;;;;;;5041035;28;20057;-62
2022/03/03 09:40:59;;;;;;;22.10;19.77;;;13.40;49.30;;;;;;5042327;28;20052;-61
2022/03/03 09:43:28;;;;;;;23.20;20.90;;;13.80;49.30;;;;;;5042064;28;20048;-62
2022/03/03 09:45:54;;;;;;;22.10;19.90;;;14.00;47.80;;;;;;5044548;28;20052;-61
2022/03/03 09:48:21;;;;;;;21.95;19.10;;;14.20;49.00;;;;;;5042151;28;20055;-61
2022/03/03 09:50:47;;;;;;;22.05;19.98;;;14.20;47.40;;;;;;5044976;28;20049;-61
2022/03/03 09:53:17;;;;;;;20.95;18.80;;;14.20;47.20;;;;;;5044070;28;20052;-61
2022/03/03 09:55:45;;;;;;;22.20;20.02;;;14.60;46.30;;;;;;5042553;28;20041;-61
2022/03/03 09:58:12;;;;;;;20.35;18.42;;;14.50;45.20;;;;;;5025463;28;20049;-61
2022/03/03 10:00:40;;;;;;;19.75;17.75;;;14.20;45.30;;;;;;5026176;28;20088;-61
2022/03/03 10:03:10;;;;;;;21.42;19.30;;;14.60;46.40;;;;;;5026579;28;20397;-62
2022/03/03 10:05:45;;;;;;;21.20;19.13;;;14.40;46.10;;;;;;5044045;28;20057;-61
2022/03/03 10:08:13;;;;;;;20.55;18.52;;;14.30;46.20;;;;;;5046766;28;20036;-61
2022/03/03 10:10:42;;;;;;;21.50;19.50;;;14.40;45.70;;;;;;5043537;28;20465;-61
2022/03/03 10:13:09;;;;;;;26.50;23.85;;;14.80;44.30;;;;;;5042590;28;20099;-61
2022/03/03 10:15:36;;;;;;;21.75;19.65;;;15.00;44.70;;;;;;5042791;28;20040;-61
2022/03/03 10:18:09;;;;;;;21.08;19.08;;;15.20;45.30;;;;;;5041239;28;20055;-61
2022/03/03 10:20:56;;;;;;;19.45;17.45;;;15.40;43.60;;;;;;5044058;28;20049;-59
2022/03/03 10:23:27;;;;;;;20.58;18.55;;;15.80;42.60;;;;;;5042188;28;20059;-61
2022/03/03 10:25:55;;;;;;;21.27;19.27;;;16.00;43.60;;;;;;5044447;28;20078;-61
2022/03/03 10:28:23;;;;;;;19.98;18.02;;;16.00;43.10;;;;;;5042390;28;20057;-61
2022/03/03 10:31:04;;;;;;;19.23;16.92;;;16.40;41.70;;;;;;5043539;28;20055;-61
2022/03/03 10:33:36;;;;;;;18.67;16.77;;;16.40;41.10;;;;;;5041631;28;20083;-61
2022/03/03 10:36:22;;;;;;;20.77;18.63;;;16.10;41.00;;;;;;5021724;28;20497;-60
2022/03/03 10:38:53;;;;;;;20.05;18.05;;;16.30;41.00;;;;;;5037610;28;20150;-60
2022/03/03 10:41:28;;;;;;;19.70;17.70;;;15.70;40.40;;;;;;5038309;28;20120;-60
2022/03/03 10:43:54;;;;;;;19.83;17.73;;;15.50;41.00;;;;;;5035970;28;20060;-60
2022/03/03 10:46:20;;;;;;;19.65;17.75;;;16.30;41.60;;;;;;5039429;28;20131;-60
2022/03/03 10:48:46;;;;;;;18.85;16.88;;;16.60;41.50;;;;;;5038402;28;20479;-60
2022/03/03 10:51:16;;;;;;;18.20;16.50;;;16.40;40.10;;;;;;5035192;28;20064;-60
2022/03/03 10:53:43;;;;;;;18.88;16.92;;;16.40;39.10;;;;;;5037156;28;20044;-61
2022/03/03 10:56:14;;;;;;;19.38;17.48;;;16.70;40.00;;;;;;5038588;28;20123;-62
2022/03/03 10:58:46;;;;;;;;;;;16.80;39.60;;;;;;5039180;28;20052;-60
2022/03/03 11:01:14;;;;;;;17.83;16.23;;;16.60;37.70;;;;;;5033862;28;19925;-61
2022/03/03 11:03:49;;;;;;;18.48;16.70;;;16.70;38.50;;;;;;5036169;28;20041;-60
2022/03/03 11:06:17;;;;;;;18.63;16.77;;;16.70;38.20;;;;;;5041240;28;20111;-60
2022/03/03 11:08:43;;;;;;;16.80;15.18;;;17.00;38.30;;;;;;5038576;28;20145;-58
2022/03/03 11:11:09;;;;;;;17.60;15.52;;;17.80;37.90;;;;;;5022086;28;20060;-60
2022/03/03 11:13:35;;;;;;;17.98;16.13;;;17.50;37.30;;;;;;5039705;28;20045;-60
2022/03/03 11:16:02;;;;;;;16.45;14.85;;;17.70;36.90;;;;;;5022325;28;20063;-60
2022/03/03 11:18:29;;;;;;;16.35;14.68;;;17.70;36.90;;;;;;5039406;28;20049;-60
2022/03/03 11:20:57;;;;;;;16.85;15.15;;;17.70;36.30;;;;;;5040559;28;20049;-60
2022/03/03 11:23:24;;;;;;;16.08;14.60;;;17.50;37.00;;;;;;5041971;28;20496;-60
2022/03/03 11:25:52;;;;;;;17.27;15.55;;;18.10;36.40;;;;;;5040792;28;20682;-60
2022/03/03 11:28:19;;;;;;;16.05;14.45;;;18.70;36.90;;;;;;5041151;28;20749;-60
2022/03/03 11:30:46;;;;;;;16.35;14.73;;;18.50;36.90;;;;;;5020988;28;20060;-60
2022/03/03 11:33:28;;;;;;;17.63;15.82;;;18.50;36.60;;;;;;5024038;28;20053;-60
2022/03/03 11:36:03;;;;;;;15.77;14.18;;;18.80;36.10;;;;;;5039606;28;20072;-60
2022/03/03 11:39:00;;;;;;;15.82;14.32;;;18.60;35.50;;;;;;5038350;28;20052;-59
2022/03/03 11:41:46;;;;;;;14.63;13.20;;;18.40;35.30;;;;;;5039711;28;20091;-59
2022/03/03 11:44:14;;;;;;;15.73;14.10;;;18.10;35.20;;;;;;5039806;28;20041;-59
2022/03/03 11:46:49;;;;;;;17.77;16.08;;;18.40;36.60;;;;;;5037265;28;20450;-59
2022/03/03 11:49:23;;;;;;;15.35;13.75;;;18.50;36.40;;;;;;5021189;28;20751;-59
2022/03/03 11:51:50;;;;;;;17.42;15.68;;;18.70;36.60;;;;;;5038414;28;20052;-59
2022/03/03 11:54:28;;;;;;;15.48;13.90;;;18.90;36.30;;;;;;5038315;28;20181;-59
2022/03/03 11:57:03;;;;;;;15.77;14.25;;;18.90;36.00;;;;;;5005804;28;20396;-63
2022/03/03 11:59:40;;;;;;;17.17;15.52;;;19.10;35.70;;;;;;5043168;28;20064;-62
2022/03/03 12:02:07;;;;;;;15.30;13.48;;;19.60;36.00;;;;;;5045423;28;20057;-62
2022/03/03 12:04:34;;;;;;;15.63;14.02;;;19.80;35.30;;;;;;5046545;28;20597;-62
2022/03/03 12:07:00;;;;;;;16.42;14.80;;;19.70;34.80;;;;;;5046827;28;20045;-62
2022/03/03 12:09:30;;;;;;;14.68;13.23;;;19.20;34.20;;;;;;5045706;28;20053;-62
2022/03/03 12:12:11;;;;;;;13.32;12.02;;;18.70;34.60;;;;;;5045442;28;20126;-62
2022/03/03 12:14:51;;;;;;;12.73;11.43;;;18.40;34.40;;;;;;5046375;28;20075;-62
2022/03/03 12:17:36;;;;;;;15.10;13.10;;;18.60;34.90;;;;;;5046711;28;20045;-62
2022/03/03 12:20:27;;;;;;;14.13;12.73;;;18.40;35.90;;;;;;5046383;28;20071;-62
2022/03/03 12:23:27;;;;;;;14.95;13.65;;;18.60;36.00;;;;;;5045559;28;20692;-62
2022/03/03 12:25:55;;;;;;;16.50;14.75;;;18.80;35.20;;;;;;5041416;28;20048;-62
2022/03/03 12:28:45;;;;;;;14.50;12.90;;;19.40;34.90;;;;;;5045958;28;20055;-62
2022/03/03 12:31:25;;;;;;;17.23;15.48;;;18.80;34.70;;;;;;5044089;28;20068;-62
2022/03/03 12:34:08;;;;;;;14.77;12.82;;;18.90;36.10;;;;;;5020802;28;20440;-62
2022/03/03 12:36:37;;;;;;;13.73;12.27;;;19.20;34.50;;;;;;5044951;28;20045;-61
2022/03/03 12:39:05;;;;;;;14.57;12.38;;;18.60;34.90;;;;;;5028952;28;20527;-62
2022/03/03 12:41:33;;;;;;;13.18;11.88;;;18.70;35.10;;;;;;5060029;28;20053;-62